Impacts TAF Board
For situational awareness. Not to be used for flight planning purposes.
IDs:

KLGA - New York/La Guardia, NY, US

Issued at 0540 UTC 16 Oct 2018
Updated at 0744 UTC 16 Oct 2018
Potential Impact None Slight Moderate High
Time0651Z 16/08Z 16/09Z 16/10Z 16/11Z 16/12Z 16/13Z 16/14Z 16/15Z 16/16Z 16/17Z 16/18Z 16/19Z 16/20Z>>
Type OBS PRVL PRVL PRVL PRVL PRVL PRVL PRVL PRVL PRVL PRVL PRVL PRVL PRVL
VIS 10 >6 >6 >6 >6 >6 >6 >6 >6 >6 >6 >6 >6 >6
CIG 150 90 -- -- -- -- -- -- -- -- -- -- -- --
Cover OVC BKN SCT SCT SCT FEW FEW FEW FEW FEW FEW FEW FEW FEW
FltCat VFR VFR VFR VFR VFR VFR VFR VFR VFR VFR VFR VFR VFR VFR
WX -- -- -- -- -- -- -- -- -- -- -- -- -- --
WDir 310 300 320 320 320 320 320 320 320 290 290 260 260 260
WSpd 23 18 16 16 16 11 11 11 11 9 9 10 10 10
WGst 31 28 23 23 23 19 19 19 19 -- -- -- -- --
Raw TAF
KLGA 160540Z 1606/1712 30018G28KT P6SM FEW035 BKN090
  FM160900 32016G23KT P6SM FEW035 SCT120
  FM161200 32011G19KT P6SM FEW035
  FM161600 29009KT P6SM FEW035
  FM161800 26010KT P6SM FEW035


Raw METAR
KLGA 160651Z 31023G31KT 10SM FEW095 BKN150 OVC200 16/07 A2997 RMK AO2 PK WND 30035/0627 SLP150 T01560067 $
KLGA 160551Z 31015KT 10SM BKN075 OVC090 17/12 A2995 RMK AO2 PK WND 30027/0521 RAE45 SLP142 P0002 60003 T01670117 10211 20161 53033 $
KLGA 160510Z 30017G26KT 9SM -RA OVC060 17/12 A2993 RMK AO2 PK WND 30026/0505 P0001 T01670122 $
KLGA 160451Z 29018G25KT 10SM -RA BKN026 BKN036 OVC048 17/12 A2991 RMK AO2 PK WND 30035/0403 SLP129 P0001 T01720122 402110128 $

METAR Board
Radar Display
Forecast Discussion
For situational awareness. Not to be used for flight planning purposes.